Terminal Aerodrome Forecast
Issued by NWS

Home | Current Version | Previous Version | Text Only | Print | Product List | Glossary On
Versions: 1 2 3 4 5 6 7 8 9 10 11 12 13 14
000
FTUS45 KCYS 232300
TAFAIA
TAF
KAIA 232329Z 2400/2424 31015G25KT P6SM BKN100
     FM240100 32017G25KT P6SM FEW090 BKN200
     FM240300 29008KT P6SM SCT090
     FM241400 29016G24KT P6SM SKC=

USA.gov is the U.S. government's official web portal to all federal, state and local government web resources and services.